Terminal Aerodrome Forecast
Issued by NWS

Home | Current Version | Previous Version | Text Only | Print | Product List | Glossary On
Versions: 1 2 3 4 5 6 7 8 9 10 11 12 13 14 15 16 17 18 19 20 21 22
000
FTUS45 KGGW 012300
TAFOLF
TAF
KOLF 012337Z 0200/0224 28020G29KT P6SM VCSH SCT060 BKN100
     FM020200 27010KT P6SM SCT120
     FM020900 30025G35KT 6SM -SHSN SCT030 BKN050
     FM022000 33014G23KT P6SM VCSH SCT060=

USA.gov is the U.S. government's official web portal to all federal, state and local government web resources and services.